Time;durP1;ratioP1;P1;durP2;ratioP2;P2;SDS_P1;SDS_P2;PMS_P1;PMS_P2;Temp;Humidity;BMP_temperature;BMP_pressure;BME280_temperature;BME280_humidity;BME280_pressure;Samples;Min_cycle;Max_cycle;Signal;HPM_P1;HPM_P2
2023/07/06 00:00:54;;;;;;;2.80;0.90;;;;;;;13.11;100.00;100107.84;4951777;28;20046;-78
2023/07/06 00:03:23;;;;;;;2.75;1.10;;;;;;;13.10;100.00;100103.53;4953314;28;20069;-79
2023/07/06 00:05:49;;;;;;;6.28;1.63;;;;;;;13.10;100.00;100115.00;4950107;28;20552;-79
2023/07/06 00:08:18;;;;;;;2.70;0.90;;;;;;;13.09;100.00;100108.00;4962556;28;20035;-80
2023/07/06 00:10:46;;;;;;;3.45;1.50;;;;;;;13.09;100.00;100101.91;4934767;29;20043;-78
2023/07/06 00:13:12;;;;;;;5.78;1.00;;;;;;;13.06;100.00;100102.25;4950774;28;20110;-79
2023/07/06 00:15:42;;;;;;;5.95;1.35;;;;;;;13.00;100.00;100093.94;4965609;28;20039;-79
2023/07/06 00:18:12;;;;;;;5.03;1.23;;;;;;;13.08;100.00;100105.53;4941470;28;20078;-80
2023/07/06 00:20:38;;;;;;;1.30;0.77;;;;;;;13.06;100.00;100097.75;4947284;28;20091;-79
2023/07/06 00:23:08;;;;;;;2.33;1.02;;;;;;;13.08;100.00;100100.22;4962442;28;20051;-79
2023/07/06 00:25:35;;;;;;;5.45;1.17;;;;;;;13.06;100.00;100100.41;4946195;28;20070;-79
2023/07/06 00:28:04;;;;;;;4.50;1.02;;;;;;;13.08;100.00;100105.53;4948973;28;20425;-80
2023/07/06 00:30:52;;;;;;;5.55;0.88;;;;;;;13.08;100.00;100103.72;4915811;28;20457;-79
2023/07/06 00:33:18;;;;;;;3.90;1.55;;;;;;;13.05;100.00;100096.09;4946181;29;20398;-79
2023/07/06 00:35:44;;;;;;;2.40;0.95;;;;;;;13.02;100.00;100091.97;4945415;28;20042;-79
2023/07/06 00:38:14;;;;;;;3.60;1.05;;;;;;;13.02;100.00;100086.66;4942202;29;20509;-79
2023/07/06 00:40:51;;;;;;;3.25;1.20;;;;;;;12.97;100.00;100094.28;4946628;28;20063;-80
2023/07/06 00:43:23;;;;;;;6.53;1.20;;;;;;;12.94;100.00;100099.09;4946423;28;20363;-79
2023/07/06 00:45:56;;;;;;;3.97;1.00;;;;;;;12.92;100.00;100090.47;4948012;28;20046;-80
2023/07/06 00:48:34;;;;;;;4.65;1.27;;;;;;;12.87;100.00;100090.97;4937138;29;20035;-79
2023/07/06 00:51:13;;;;;;;3.58;1.10;;;;;;;12.88;100.00;100084.69;4971055;28;20102;-78
2023/07/06 00:53:42;;;;;;;4.80;1.65;;;;;;;12.86;100.00;100086.69;4937834;28;20540;-79
2023/07/06 00:56:15;;;;;;;2.97;1.08;;;;;;;12.84;100.00;100078.06;4954324;28;20043;-79
2023/07/06 00:58:45;;;;;;;2.20;1.30;;;;;;;12.81;100.00;100078.38;4954590;28;20118;-80
2023/07/06 01:01:15;;;;;;;4.10;1.17;;;;;;;12.76;100.00;100071.78;4938597;29;20031;-79
2023/07/06 01:03:46;;;;;;;5.07;1.30;;;;;;;12.75;100.00;100075.44;4954019;28;20046;-80
2023/07/06 01:06:19;;;;;;;7.22;1.17;;;;;;;12.72;100.00;100074.94;4974432;28;20485;-79
2023/07/06 01:08:52;;;;;;;3.03;1.52;;;;;;;12.70;100.00;100074.25;4941090;28;20046;-78
2023/07/06 01:11:20;;;;;;;3.00;1.00;;;;;;;12.67;100.00;100070.13;4954351;28;20106;-80
2023/07/06 01:13:48;;;;;;;2.15;1.08;;;;;;;12.68;100.00;100063.81;4961931;28;20071;-79
2023/07/06 01:16:32;;;;;;;3.08;1.30;;;;;;;12.70;100.00;100082.22;4938303;29;20579;-79
2023/07/06 01:19:23;;;;;;;4.78;1.48;;;;;;;12.66;100.00;100068.50;4982433;28;20077;-79
2023/07/06 01:22:17;;;;;;;2.53;1.08;;;;;;;12.64;100.00;100070.47;4953521;28;20469;-79
2023/07/06 01:25:04;;;;;;;2.65;1.00;;;;;;;12.64;100.00;100075.78;4954184;28;20043;-79
2023/07/06 01:27:59;;;;;;;3.38;1.00;;;;;;;12.62;100.00;100065.34;4940674;28;20043;-79
2023/07/06 01:30:45;;;;;;;3.63;1.20;;;;;;;12.61;100.00;100058.34;4952939;28;20501;-79
2023/07/06 01:33:18;;;;;;;5.15;1.45;;;;;;;12.61;100.00;100054.91;4927917;29;20374;-80
2023/07/06 01:35:52;;;;;;;2.97;1.17;;;;;;;12.60;100.00;100055.88;4946091;28;20482;-80
2023/07/06 01:38:21;;;;;;;5.97;1.20;;;;;;;12.57;100.00;100054.41;4955833;28;20046;-80
2023/07/06 01:40:47;;;;;;;3.85;1.10;;;;;;;12.58;100.00;100044.63;4936844;28;20565;-80
2023/07/06 01:43:13;;;;;;;8.10;1.45;;;;;;;12.57;100.00;100049.09;4931307;29;20032;-80
2023/07/06 01:45:39;;;;;;;2.67;1.20;;;;;;;12.57;100.00;100049.09;4933487;29;20555;-80
2023/07/06 01:48:10;;;;;;;4.78;1.40;;;;;;;12.53;100.00;100034.53;4942491;28;20131;-80
2023/07/06 01:50:55;;;;;;;5.93;1.45;;;;;;;12.55;100.00;100037.81;4951742;28;20032;-80
2023/07/06 01:53:39;;;;;;;3.15;0.95;;;;;;;12.56;100.00;100044.78;4955289;28;20043;-80
2023/07/06 01:56:19;;;;;;;5.22;1.15;;;;;;;12.51;100.00;100040.00;4940664;28;20065;-79
2023/07/06 01:59:02;;;;;;;3.72;1.20;;;;;;;12.52;100.00;100039.00;4923134;29;20035;-80
2023/07/06 02:01:59;;;;;;;5.40;1.05;;;;;;;12.52;100.00;100033.69;4961600;28;20027;-79
2023/07/06 02:04:30;;;;;;;6.43;1.25;;;;;;;12.52;100.00;100039.00;4934260;29;20150;-79
2023/07/06 02:07:01;;;;;;;6.38;1.20;;;;;;;12.54;100.00;100036.19;4966573;28;20086;-77
2023/07/06 02:09:27;;;;;;;7.25;1.20;;;;;;;12.53;100.00;100037.19;4940710;28;20038;-80
2023/07/06 02:11:53;;;;;;;7.25;1.80;;;;;;;12.52;100.00;100031.03;4971609;28;20493;-80
2023/07/06 02:14:20;;;;;;;4.97;1.30;;;;;;;12.52;100.00;100030.19;4940648;28;20039;-79
2023/07/06 02:16:50;;;;;;;4.15;1.40;;;;;;;12.52;100.00;100025.75;4955443;28;20481;-79
2023/07/06 02:19:20;;;;;;;5.88;1.42;;;;;;;12.53;100.00;100024.72;4944939;28;20062;-79
2023/07/06 02:21:51;;;;;;;2.53;1.05;;;;;;;12.51;100.00;100029.41;4938345;28;20042;-79
2023/07/06 02:24:17;;;;;;;5.35;1.77;;;;;;;12.49;100.00;100023.41;4962811;28;20030;-79
2023/07/06 02:26:44;;;;;;;4.93;1.20;;;;;;;12.50;100.00;100014.47;4953762;28;20092;-79
2023/07/06 02:29:10;;;;;;;4.85;1.40;;;;;;;12.49;100.00;100015.47;4968191;28;20045;-79
2023/07/06 02:31:36;;;;;;;2.95;1.58;;;;;;;12.48;100.00;100016.47;4972044;28;20035;-80
2023/07/06 02:34:03;;;;;;;3.42;1.42;;;;;;;12.48;100.00;100015.63;4940294;28;20429;-79
2023/07/06 02:36:29;;;;;;;1.98;1.00;;;;;;;12.46;100.00;100004.38;4941246;29;20075;-79
2023/07/06 02:38:56;;;;;;;5.40;1.45;;;;;;;12.45;100.00;100003.56;4967568;28;20062;-79
2023/07/06 02:41:22;;;;;;;5.50;1.38;;;;;;;12.43;100.00;100002.88;4938835;28;20517;-79
2023/07/06 02:43:48;;;;;;;4.05;1.20;;;;;;;12.40;100.00;99998.75;4970033;28;20038;-79
2023/07/06 02:46:19;;;;;;;5.72;1.15;;;;;;;12.44;100.00;99999.22;4927963;28;20030;-80
2023/07/06 02:48:46;;;;;;;5.65;1.55;;;;;;;12.45;100.00;100000.91;4955252;28;20035;-79
2023/07/06 02:51:13;;;;;;;3.40;1.17;;;;;;;12.46;100.00;99997.25;4940307;28;20045;-79
2023/07/06 02:53:39;;;;;;;4.38;1.20;;;;;;;12.47;100.00;99992.78;4967908;28;20074;-80
2023/07/06 02:56:04;;;;;;;8.32;1.38;;;;;;;12.49;100.00;99994.25;4951301;28;20402;-81
2023/07/06 02:58:30;;;;;;;2.05;0.93;;;;;;;12.46;100.00;99988.47;4968185;28;20086;-80
2023/07/06 03:00:56;;;;;;;5.10;1.33;;;;;;;12.47;100.00;99990.94;4937461;29;20038;-79
2023/07/06 03:03:26;;;;;;;4.68;1.52;;;;;;;12.44;100.00;99985.97;4923679;28;20046;-79
2023/07/06 03:05:52;;;;;;;5.88;1.23;;;;;;;12.44;100.00;99977.22;4949368;28;20455;-78
2023/07/06 03:08:20;;;;;;;2.80;1.10;;;;;;;12.44;100.00;99978.03;4965733;28;20047;-78
2023/07/06 03:10:46;;;;;;;4.57;1.55;;;;;;;12.41;100.00;99978.38;4965291;28;20031;-80
2023/07/06 03:13:13;;;;;;;10.45;2.92;;;;;;;12.40;100.00;99979.38;4966955;28;20097;-78
2023/07/06 03:15:40;;;;;;;3.75;1.05;;;;;;;12.40;100.00;99976.72;4937111;29;20039;-79
2023/07/06 03:18:06;;;;;;;5.63;1.70;;;;;;;12.40;100.00;99972.25;4952273;28;20038;-78
2023/07/06 03:20:36;;;;;;;3.53;1.38;;;;;;;12.41;100.00;99970.41;4950438;28;20081;-79
2023/07/06 03:23:03;;;;;;;8.40;1.60;;;;;;;12.39;100.00;99969.78;4981378;28;20489;-78
2023/07/06 03:25:29;;;;;;;6.70;1.65;;;;;;;12.34;100.00;99967.59;4937332;29;20074;-79
2023/07/06 03:27:56;;;;;;;5.50;1.33;;;;;;;12.33;100.00;99959.81;4965860;28;20113;-79
2023/07/06 03:30:26;;;;;;;5.28;1.08;;;;;;;12.30;100.00;99961.00;4936391;29;20070;-81
2023/07/06 03:32:54;;;;;;;9.68;1.88;;;;;;;12.21;100.00;99968.13;4951515;28;20059;-81
2023/07/06 03:35:22;;;;;;;6.07;1.38;;;;;;;12.20;100.00;99961.16;4940557;28;20078;-78
2023/07/06 03:37:48;;;;;;;5.53;1.35;;;;;;;12.17;100.00;99963.34;4931863;28;20405;-79
2023/07/06 03:40:14;;;;;;;7.70;1.70;;;;;;;12.15;100.00;99960.84;4952816;28;20501;-80
2023/07/06 03:42:45;;;;;;;6.65;1.38;;;;;;;12.14;100.00;99957.38;4967345;28;20086;-80
2023/07/06 03:45:13;;;;;;;6.55;1.40;;;;;;;12.15;100.00;99963.50;4970383;28;20027;-79
2023/07/06 03:47:42;;;;;;;6.63;1.60;;;;;;;12.13;100.00;99961.03;4952055;28;20031;-78
2023/07/06 03:50:12;;;;;;;5.28;1.48;;;;;;;12.16;100.00;99965.16;4950686;28;20049;-78
2023/07/06 03:52:39;;;;;;;8.63;1.90;;;;;;;12.18;100.00;99971.13;4966078;28;20097;-80
2023/07/06 03:55:08;;;;;;;2.35;1.45;;;;;;;12.21;100.00;99960.19;4947642;28;20063;-79
2023/07/06 03:57:34;;;;;;;6.22;1.92;;;;;;;12.22;100.00;99961.00;4950116;28;20027;-80
2023/07/06 04:00:00;;;;;;;7.78;1.83;;;;;;;12.21;100.00;99957.53;4944415;28;20490;-79
2023/07/06 04:02:26;;;;;;;6.30;1.40;;;;;;;12.26;100.00;99954.38;4948068;28;20034;-80
2023/07/06 04:04:52;;;;;;;5.25;1.75;;;;;;;12.29;100.00;99948.75;4949838;28;20493;-79
2023/07/06 04:07:18;;;;;;;5.18;1.45;;;;;;;12.30;100.00;99949.56;4966701;28;20393;-79
2023/07/06 04:09:44;;;;;;;6.53;1.40;;;;;;;12.34;100.00;99941.09;4949669;28;20106;-79
2023/07/06 04:12:13;;;;;;;2.70;1.33;;;;;;;12.36;100.00;99939.13;4935061;29;20035;-80
2023/07/06 04:14:39;;;;;;;7.32;1.60;;;;;;;12.37;100.00;99939.94;4965281;28;20049;-80
2023/07/06 04:17:07;;;;;;;3.15;1.70;;;;;;;12.40;100.00;99940.44;4938321;28;20031;-79
2023/07/06 04:19:34;;;;;;;6.55;1.35;;;;;;;12.44;100.00;99940.91;4965993;28;20106;-81
2023/07/06 04:22:00;;;;;;;7.72;1.60;;;;;;;12.46;100.00;99932.78;4949364;28;20065;-81
2023/07/06 04:24:31;;;;;;;6.50;1.40;;;;;;;12.49;100.00;99932.47;4951783;28;20110;-79
2023/07/06 04:26:59;;;;;;;5.88;1.58;;;;;;;12.53;100.00;99933.78;4967776;28;20086;-79
2023/07/06 04:29:26;;;;;;;9.80;1.80;;;;;;;12.55;100.00;99934.44;4938256;29;20035;-80
2023/07/06 04:31:55;;;;;;;6.55;1.25;;;;;;;12.57;100.00;99936.91;4947168;28;20422;-80
2023/07/06 04:34:22;;;;;;;9.52;2.08;;;;;;;12.52;100.00;99930.31;4949385;28;20078;-80
2023/07/06 04:36:48;;;;;;;11.77;1.48;;;;;;;12.52;100.00;99934.78;4960881;28;20046;-81
2023/07/06 04:39:15;;;;;;;6.57;1.30;;;;;;;12.50;100.00;99934.94;4950102;28;20023;-81
2023/07/06 04:41:43;;;;;;;3.75;1.17;;;;;;;12.49;100.00;99924.50;4969516;28;20039;-81
2023/07/06 04:44:10;;;;;;;7.07;1.67;;;;;;;12.47;100.00;99932.63;4941491;29;20035;-79
2023/07/06 04:46:38;;;;;;;8.77;1.58;;;;;;;12.47;100.00;99931.81;4946636;28;20039;-79
2023/07/06 04:49:05;;;;;;;7.20;1.73;;;;;;;12.51;100.00;99928.66;4954773;28;20062;-79
2023/07/06 04:51:35;;;;;;;9.90;1.85;;;;;;;12.56;100.00;99922.84;4969577;28;20024;-78
2023/07/06 04:54:04;;;;;;;5.30;1.33;;;;;;;12.57;100.00;99926.31;4967525;28;20082;-79
2023/07/06 04:56:30;;;;;;;5.85;1.48;;;;;;;12.56;100.00;99916.72;4952886;28;20031;-79
2023/07/06 04:58:56;;;;;;;5.10;1.48;;;;;;;12.56;100.00;99911.41;4954479;28;20050;-79
2023/07/06 05:01:24;;;;;;;4.20;1.25;;;;;;;12.55;100.00;99917.72;4958353;28;20031;-80
2023/07/06 05:03:50;;;;;;;2.88;1.40;;;;;;;12.50;100.00;99916.38;4937683;29;20031;-80
2023/07/06 05:06:15;;;;;;;3.72;1.20;;;;;;;12.52;100.00;99917.06;4953068;28;20035;-79
2023/07/06 05:08:44;;;;;;;10.18;1.10;;;;;;;12.50;100.00;99915.56;4953698;28;20143;-79
2023/07/06 05:11:10;;;;;;;5.05;1.45;;;;;;;12.49;100.00;99920.03;4951802;28;20039;-79
2023/07/06 05:13:37;;;;;;;6.60;1.65;;;;;;;12.46;100.00;99917.72;4964634;28;20028;-79
2023/07/06 05:16:03;;;;;;;5.00;1.60;;;;;;;12.44;100.00;99903.81;4968477;28;20030;-79
2023/07/06 05:18:29;;;;;;;9.18;1.73;;;;;;;12.42;100.00;99902.34;4937452;29;20035;-79
2023/07/06 05:20:57;;;;;;;6.35;1.58;;;;;;;12.45;100.00;99907.31;4936106;29;20031;-79
2023/07/06 05:23:28;;;;;;;7.72;1.63;;;;;;;12.47;100.00;99905.31;4955280;28;20036;-79
2023/07/06 05:25:55;;;;;;;4.60;1.27;;;;;;;12.44;100.00;99898.50;4948345;29;20039;-80
2023/07/06 05:28:22;;;;;;;6.47;1.30;;;;;;;12.44;100.00;99901.16;4952419;28;20681;-80
2023/07/06 05:30:48;;;;;;;4.80;1.75;;;;;;;12.41;100.00;99893.56;4968491;28;20066;-80
2023/07/06 05:33:15;;;;;;;8.27;1.55;;;;;;;12.44;100.00;99892.41;4964679;28;20087;-80
2023/07/06 05:35:41;;;;;;;8.98;2.05;;;;;;;12.46;100.00;99888.56;4950142;29;20031;-79
2023/07/06 05:38:10;;;;;;;4.28;1.20;;;;;;;12.52;100.00;99892.34;4936859;29;20147;-79
2023/07/06 05:40:40;;;;;;;8.32;1.58;;;;;;;12.58;100.00;99891.66;4968653;28;20041;-80
2023/07/06 05:43:07;;;;;;;4.38;1.48;;;;;;;12.64;100.00;99888.38;4953031;28;20039;-79
2023/07/06 05:45:33;;;;;;;4.72;1.48;;;;;;;12.70;100.00;99894.78;4957028;28;20110;-79
2023/07/06 05:47:59;;;;;;;2.97;1.35;;;;;;;12.75;100.00;99892.47;4953289;28;20035;-79
2023/07/06 05:50:25;;;;;;;4.78;1.00;;;;;;;12.81;100.00;99898.03;4954163;28;20038;-79
2023/07/06 05:52:52;;;;;;;6.53;1.52;;;;;;;12.85;100.00;99892.22;4967757;28;20027;-79
2023/07/06 05:55:18;;;;;;;7.82;1.70;;;;;;;12.87;100.00;99884.09;4970973;28;20066;-79
2023/07/06 05:57:45;;;;;;;3.75;1.50;;;;;;;12.87;100.00;99889.41;4972742;28;20043;-79
2023/07/06 06:00:11;;;;;;;6.70;1.70;;;;;;;12.84;100.00;99893.22;4969364;28;20034;-80
2023/07/06 06:02:39;;;;;;;5.07;1.30;;;;;;;12.86;100.00;99883.28;4953257;28;20042;-80
2023/07/06 06:05:06;;;;;;;6.25;1.35;;;;;;;12.92;100.00;99892.38;4955036;28;20030;-80
2023/07/06 06:07:33;;;;;;;6.57;1.40;;;;;;;12.99;100.00;99884.53;4955499;28;20035;-80
2023/07/06 06:10:03;;;;;;;9.20;1.80;;;;;;;13.06;100.00;99885.50;4973689;28;20389;-81
2023/07/06 06:12:31;;;;;;;8.60;1.70;;;;;;;13.14;100.00;99880.13;4938864;28;20034;-80
2023/07/06 06:14:57;;;;;;;9.35;1.70;;;;;;;13.22;100.00;99881.91;4970008;28;20042;-82
2023/07/06 06:17:27;;;;;;;5.13;1.42;;;;;;;13.32;100.00;99875.53;4965956;28;20042;-82
2023/07/06 06:19:53;;;;;;;4.60;1.27;;;;;;;13.37;100.00;99882.00;4956655;28;20069;-79
2023/07/06 06:22:19;;;;;;;6.18;1.65;;;;;;;13.44;100.00;99878.63;4934827;28;20050;-79
2023/07/06 06:24:45;;;;;;;10.23;1.75;;;;;;;13.54;100.00;99878.44;4940423;28;20121;-82
2023/07/06 06:27:14;;;;;;;12.45;1.80;;;;;;;13.58;100.00;99867.28;4956643;28;20034;-81
2023/07/06 06:29:42;;;;;;;8.13;1.90;;;;;;;13.61;100.00;99866.91;4955242;28;20098;-80
2023/07/06 06:32:09;;;;;;;5.55;1.50;;;;;;;13.62;100.00;99865.06;4939407;28;20536;-80
2023/07/06 06:34:36;;;;;;;7.63;1.85;;;;;;;13.64;100.00;99871.88;4952994;28;20031;-79
2023/07/06 06:37:04;;;;;;;4.38;1.25;;;;;;;13.63;100.00;99864.06;4963284;28;20038;-80
2023/07/06 06:39:31;;;;;;;11.82;1.92;;;;;;;13.65;100.00;99862.06;4972387;28;20035;-80
2023/07/06 06:41:58;;;;;;;4.38;1.85;;;;;;;13.67;100.00;99851.25;4928117;28;20035;-79
2023/07/06 06:44:28;;;;;;;8.32;1.85;;;;;;;13.71;100.00;99861.34;4973016;28;20026;-80
2023/07/06 06:46:56;;;;;;;4.72;1.67;;;;;;;13.77;100.00;99852.66;4968532;28;20077;-79
2023/07/06 06:49:23;;;;;;;5.38;1.70;;;;;;;13.80;100.00;99862.09;4920314;29;20041;-79
2023/07/06 06:51:48;;;;;;;7.07;1.95;;;;;;;13.80;100.00;99856.78;4952506;28;20045;-79
2023/07/06 06:54:14;;;;;;;8.35;1.83;;;;;;;13.83;100.00;99859.09;4964748;28;20055;-80
2023/07/06 06:56:40;;;;;;;4.22;1.45;;;;;;;13.86;100.00;99864.03;4953060;28;20035;-81
2023/07/06 06:59:07;;;;;;;5.50;1.77;;;;;;;13.90;100.00;99867.16;4936351;29;20513;-79
2023/07/06 07:01:33;;;;;;;13.32;1.45;;;;;;;13.91;100.00;99860.00;4968284;28;20050;-79
2023/07/06 07:04:00;;;;;;;9.80;2.00;;;;;;;13.85;100.00;99850.94;4968355;28;20031;-79
2023/07/06 07:06:28;;;;;;;5.07;1.50;;;;;;;13.81;100.00;99854.97;4947926;28;20119;-79
2023/07/06 07:08:54;;;;;;;4.07;1.85;;;;;;;13.80;100.00;99853.28;4960114;28;20046;-79
2023/07/06 07:11:21;;;;;;;9.40;2.30;;;;;;;13.84;100.00;99851.94;4941606;28;20079;-79
2023/07/06 07:13:48;;;;;;;3.17;1.33;;;;;;;13.88;100.00;99850.56;4946046;29;20042;-79
2023/07/06 07:16:15;;;;;;;6.55;1.40;;;;;;;13.91;100.00;99836.09;4948527;29;20043;-79
2023/07/06 07:18:43;;;;;;;2.10;1.30;;;;;;;13.95;100.00;99840.84;4931827;29;20039;-79
2023/07/06 07:21:12;;;;;;;3.33;1.63;;;;;;;13.99;100.00;99833.34;4961323;28;20055;-78
2023/07/06 07:23:43;;;;;;;6.60;1.60;;;;;;;14.02;100.00;99833.81;4944799;28;20098;-80
2023/07/06 07:26:10;;;;;;;7.68;1.58;;;;;;;14.04;100.00;99824.84;4956095;28;20074;-80
2023/07/06 07:28:37;;;;;;;7.85;1.58;;;;;;;14.09;100.00;99828.63;4973174;28;20039;-79
2023/07/06 07:31:03;;;;;;;13.05;1.73;;;;;;;14.19;100.00;99817.69;4949548;28;20031;-79
2023/07/06 07:33:29;;;;;;;4.60;1.58;;;;;;;14.27;100.00;99806.13;4945617;28;20058;-79
2023/07/06 07:36:03;;;;;;;5.25;1.55;;;;;;;14.41;100.00;99815.13;4966236;28;20067;-78
2023/07/06 07:38:29;;;;;;;5.45;1.80;;;;;;;14.49;100.00;99812.34;4966711;28;20071;-79
2023/07/06 07:40:57;;;;;;;8.60;1.55;;;;;;;14.55;100.00;99817.94;4939407;29;20043;-79
2023/07/06 07:43:25;;;;;;;6.63;1.77;;;;;;;14.55;100.00;99812.63;4949587;28;20047;-79
2023/07/06 07:45:56;;;;;;;10.25;2.03;;;;;;;14.64;100.00;99814.16;4949065;28;20074;-79
2023/07/06 07:48:24;;;;;;;12.15;2.03;;;;;;;14.68;100.00;99804.81;4944322;28;20098;-79
2023/07/06 07:50:53;;;;;;;6.18;1.67;;;;;;;14.69;100.00;99808.28;4950075;28;20114;-78
2023/07/06 07:53:24;;;;;;;7.22;1.90;;;;;;;14.72;100.00;99803.41;4950781;28;20042;-79
2023/07/06 07:55:53;;;;;;;8.48;1.75;;;;;;;14.70;100.00;99799.31;4939891;28;20042;-79
2023/07/06 07:58:19;;;;;;;9.88;2.22;;;;;;;14.69;100.00;99795.81;4941765;28;20556;-79
2023/07/06 08:00:55;;;;;;;7.40;2.03;;;;;;;14.77;100.00;99802.84;4950484;28;20035;-79
2023/07/06 08:03:25;;;;;;;8.45;1.70;;;;;;;14.81;100.00;99792.69;4950149;28;20038;-79
2023/07/06 08:05:55;;;;;;;5.05;1.75;;;;;;;14.87;100.00;99798.06;4964433;28;20115;-78
2023/07/06 08:08:25;;;;;;;5.88;1.88;;;;;;;14.91;100.00;99784.41;4951091;28;20070;-79
2023/07/06 08:10:55;;;;;;;4.70;1.70;;;;;;;15.00;100.00;99783.25;4944571;28;20074;-78
2023/07/06 08:13:22;;;;;;;10.57;3.08;;;;;;;15.08;100.00;99782.31;4951221;28;20042;-79
2023/07/06 08:15:49;;;;;;;5.60;2.60;;;;;;;15.22;100.00;99776.09;4917553;28;20106;-80
2023/07/06 08:18:15;;;;;;;6.53;1.58;;;;;;;15.28;100.00;99774.50;4966259;28;20118;-80
2023/07/06 08:20:44;;;;;;;8.30;1.67;;;;;;;15.43;100.00;99777.06;4964752;28;20118;-78
2023/07/06 08:23:11;;;;;;;4.72;1.73;;;;;;;15.50;100.00;99775.28;4949717;29;20065;-79
2023/07/06 08:25:40;;;;;;;3.58;1.83;;;;;;;15.52;100.00;99769.75;4965172;28;20730;-79
2023/07/06 08:28:12;;;;;;;10.68;1.95;;;;;;;15.54;100.00;99758.91;4965711;28;20118;-79
2023/07/06 08:30:40;;;;;;;8.98;1.65;;;;;;;15.53;100.00;99754.63;4947971;28;20402;-78
2023/07/06 08:33:09;;;;;;;8.90;1.50;;;;;;;15.60;100.00;99750.16;4946823;28;20032;-78
2023/07/06 08:35:44;;;;;;;5.03;1.60;;;;;;;15.65;100.00;99741.56;4944452;28;20387;-78
2023/07/06 08:38:11;;;;;;;7.95;2.05;;;;;;;15.59;100.00;99740.53;4956569;28;20486;-79
2023/07/06 08:40:40;;;;;;;5.30;1.83;;;;;;;15.60;100.00;99747.47;4949460;28;20066;-78
2023/07/06 08:43:21;;;;;;;8.30;1.95;;;;;;;15.61;100.00;99741.97;4937583;29;20502;-79
2023/07/06 08:45:52;;;;;;;6.88;1.77;;;;;;;15.59;100.00;99743.19;4934188;29;20082;-78
2023/07/06 08:48:25;;;;;;;12.88;1.95;;;;;;;15.57;100.00;99731.88;4963901;28;20044;-79
2023/07/06 08:51:19;;;;;;;11.68;2.65;;;;;;;15.55;100.00;99729.41;4942475;28;20049;-78
2023/07/06 08:54:26;;;;;;;6.47;1.70;;;;;;;15.51;100.00;99728.19;4946578;28;20105;-79
2023/07/06 08:56:52;;;;;;;;;;;;;;;15.42;100.00;99713.34;4964950;28;20026;-80
2023/07/06 08:59:42;;;;;;;8.45;2.05;;;;;;;15.49;100.00;99715.06;4968285;28;19918;-79
2023/07/06 09:02:16;;;;;;;5.85;1.80;;;;;;;15.53;100.00;99712.81;4950591;28;20038;-80
2023/07/06 09:04:43;;;;;;;4.90;1.70;;;;;;;15.54;100.00;99708.31;4936564;28;20063;-79
2023/07/06 09:07:12;;;;;;;4.57;2.10;;;;;;;15.60;100.00;99705.69;4949130;28;20122;-80
2023/07/06 09:09:43;;;;;;;8.43;1.73;;;;;;;15.62;100.00;99698.31;4953220;28;20038;-78
2023/07/06 09:12:23;;;;;;;4.05;1.73;;;;;;;15.66;100.00;99695.25;4954299;28;20046;-78
2023/07/06 09:14:51;;;;;;;8.68;1.60;;;;;;;15.72;100.00;99699.78;4933434;28;20053;-79
2023/07/06 09:17:17;;;;;;;3.85;1.67;;;;;;;15.74;100.00;99693.25;4973116;28;20034;-79
2023/07/06 09:19:44;;;;;;;4.22;1.63;;;;;;;15.77;100.00;99684.03;4970665;28;20409;-79
2023/07/06 09:22:10;;;;;;;7.03;1.60;;;;;;;15.82;100.00;99694.09;4938007;28;20038;-78
2023/07/06 09:24:37;;;;;;;3.25;1.50;;;;;;;15.81;100.00;99687.16;4969886;28;20087;-78
2023/07/06 09:27:17;;;;;;;4.13;2.10;;;;;;;15.86;100.00;99680.19;4972250;28;20515;-79
2023/07/06 09:29:44;;;;;;;7.53;1.92;;;;;;;15.81;100.00;99674.66;4953315;28;20043;-78
2023/07/06 09:32:29;;;;;;;3.00;1.60;;;;;;;15.83;100.00;99675.25;4972453;28;20059;-78
2023/07/06 09:35:21;;;;;;;4.10;1.80;;;;;;;15.76;100.00;99669.09;4935741;28;20038;-79
2023/07/06 09:37:50;;;;;;;4.13;1.48;;;;;;;15.72;100.00;99666.00;4956620;28;20035;-77
2023/07/06 09:40:16;;;;;;;6.80;2.03;;;;;;;15.69;100.00;99652.22;4938658;28;20027;-79
2023/07/06 09:42:43;;;;;;;9.75;2.30;;;;;;;15.69;100.00;99663.72;4957167;28;20030;-79
2023/07/06 09:45:24;;;;;;;4.78;1.70;;;;;;;15.73;100.00;99658.81;4972479;28;20089;-78
2023/07/06 09:47:57;;;;;;;4.63;1.77;;;;;;;15.73;100.00;99649.00;4964536;28;20549;-79
2023/07/06 09:50:32;;;;;;;5.00;1.83;;;;;;;15.71;100.00;99645.72;4968529;28;20101;-79
2023/07/06 09:52:59;;;;;;;9.43;2.17;;;;;;;15.72;100.00;99652.66;4952100;28;20045;-78
2023/07/06 09:55:29;;;;;;;6.45;2.17;;;;;;;15.72;100.00;99644.69;4955605;28;20066;-79
2023/07/06 09:57:56;;;;;;;6.70;2.22;;;;;;;15.72;100.00;99642.00;4954121;28;20070;-78
2023/07/06 10:00:29;;;;;;;5.85;2.15;;;;;;;15.67;100.00;99639.09;4939765;28;20481;-79
2023/07/06 10:03:14;;;;;;;7.57;2.22;;;;;;;15.71;100.00;99640.38;4950698;28;20038;-79
2023/07/06 10:06:07;;;;;;;5.82;1.83;;;;;;;15.67;100.00;99627.66;4957849;28;20031;-79
2023/07/06 10:08:40;;;;;;;7.55;1.80;;;;;;;15.71;100.00;99628.88;4966792;28;20523;-79
2023/07/06 10:11:12;;;;;;;4.38;1.80;;;;;;;15.75;100.00;99622.97;4952467;28;20081;-79
2023/07/06 10:14:09;;;;;;;5.80;2.38;;;;;;;15.82;100.00;99620.34;4965405;28;20034;-81
2023/07/06 10:16:38;;;;;;;6.45;2.15;;;;;;;15.79;100.00;99606.56;4940738;28;20049;-78
2023/07/06 10:19:12;;;;;;;5.35;1.73;;;;;;;15.73;100.00;99611.72;4920977;28;20033;-79
2023/07/06 10:22:07;;;;;;;8.52;2.20;;;;;;;15.70;100.00;99608.59;4946077;28;20125;-79
2023/07/06 10:24:41;;;;;;;5.43;1.90;;;;;;;15.52;100.00;99603.81;4945050;28;20394;-79
2023/07/06 10:27:18;;;;;;;6.35;1.98;;;;;;;15.39;100.00;99605.38;4936269;28;20468;-79
2023/07/06 10:29:58;;;;;;;6.43;1.98;;;;;;;15.26;100.00;99600.81;4953722;28;20129;-78
2023/07/06 10:32:36;;;;;;;8.25;2.25;;;;;;;15.11;100.00;99599.09;4950344;28;20085;-78
2023/07/06 10:35:10;;;;;;;10.82;2.05;;;;;;;14.98;100.00;99599.00;4976729;28;20027;-80
2023/07/06 10:37:39;;;;;;;7.75;1.65;;;;;;;14.88;100.00;99596.69;4949987;28;20524;-78
2023/07/06 10:40:26;;;;;;;3.63;1.55;;;;;;;14.86;100.00;99609.34;4958228;28;20401;-78
2023/07/06 10:43:14;;;;;;;5.85;1.95;;;;;;;14.84;100.00;99622.03;4960497;28;20031;-79
2023/07/06 10:45:48;;;;;;;6.95;1.92;;;;;;;14.78;100.00;99612.16;4951927;28;20477;-80
2023/07/06 10:48:34;;;;;;;3.65;1.48;;;;;;;14.82;100.00;99605.44;4952644;28;20045;-79
2023/07/06 10:51:04;;;;;;;11.85;2.13;;;;;;;14.80;100.00;99610.94;4983132;28;20477;-78
2023/07/06 10:53:39;;;;;;;6.00;1.83;;;;;;;14.71;100.00;99601.44;4953130;28;20047;-79
2023/07/06 10:56:30;;;;;;;6.72;1.77;;;;;;;14.73;100.00;99600.22;4937314;28;20030;-79
2023/07/06 10:59:01;;;;;;;6.72;2.17;;;;;;;14.66;100.00;99607.34;4969433;28;20039;-79
2023/07/06 11:01:39;;;;;;;8.85;1.85;;;;;;;14.64;100.00;99596.06;4944192;28;20023;-79
2023/07/06 11:04:43;;;;;;;9.30;2.05;;;;;;;14.59;100.00;99601.97;4937925;28;20030;-79
2023/07/06 11:07:35;;;;;;;4.72;2.30;;;;;;;14.57;100.00;99598.66;4940588;28;20142;-79
2023/07/06 11:10:12;;;;;;;10.77;1.98;;;;;;;14.56;100.00;99593.53;4967372;28;20019;-79
2023/07/06 11:12:57;;;;;;;6.72;2.15;;;;;;;14.55;100.00;99581.25;4955084;28;20113;-80
2023/07/06 11:15:35;;;;;;;6.60;2.17;;;;;;;14.56;100.00;99578.41;4970526;28;20038;-79
2023/07/06 11:18:37;;;;;;;8.40;1.98;;;;;;;14.59;100.00;99567.38;4942389;28;20027;-80
2023/07/06 11:21:25;;;;;;;6.22;2.33;;;;;;;14.64;100.00;99558.81;4948518;28;20030;-80
2023/07/06 11:23:55;;;;;;;4.53;2.03;;;;;;;14.67;100.00;99554.97;4957811;28;20058;-78
2023/07/06 11:26:22;;;;;;;9.02;2.47;;;;;;;14.71;100.00;99540.28;4943618;28;20033;-79
2023/07/06 11:28:49;;;;;;;6.30;1.95;;;;;;;14.75;100.00;99542.34;4965968;28;20452;-80
2023/07/06 11:31:36;;;;;;;7.45;2.30;;;;;;;14.83;100.00;99540.56;4949746;28;20026;-80
2023/07/06 11:34:20;;;;;;;7.85;2.05;;;;;;;14.85;100.00;99530.56;4949014;28;20043;-80
2023/07/06 11:37:05;;;;;;;9.43;2.17;;;;;;;14.85;100.00;99514.59;4954534;28;20050;-80
2023/07/06 11:39:57;;;;;;;8.98;2.17;;;;;;;14.86;100.00;99516.22;4950356;28;20038;-80
2023/07/06 11:42:44;;;;;;;5.88;1.92;;;;;;;14.87;100.00;99507.25;4968528;28;20039;-80